Time;durP1;ratioP1;P1;durP2;ratioP2;P2;SDS_P1;SDS_P2;PMS_P1;PMS_P2;Temp;Humidity;BMP_temperature;BMP_pressure;BME280_temperature;BME280_humidity;BME280_pressure;Samples;Min_cycle;Max_cycle;Signal;HPM_P1;HPM_P2
2021/07/08 00:01:07;;;;;;;;;;;;;;;17.17;74.88;101891.66;5074068;28;20334;-40
2021/07/08 00:03:32;;;;;;;8.35;6.18;;;;;;;16.95;77.09;101888.03;5073572;28;20370;-41
2021/07/08 00:05:58;;;;;;;7.00;5.35;;;;;;;16.92;77.35;101883.88;5073285;28;20484;-40
2021/07/08 00:08:23;;;;;;;6.72;5.88;;;;;;;16.87;78.45;101888.44;5073513;28;20107;-40
2021/07/08 00:10:52;;;;;;;;;;;;;;;17.06;75.79;101889.84;5073657;28;20021;-40
2021/07/08 00:13:18;;;;;;;9.30;5.65;;;;;;;16.86;77.88;101884.88;5073112;28;19912;-40
2021/07/08 00:15:44;;;;;;;7.15;5.78;;;;;;;16.79;78.58;101877.91;5073503;28;20020;-40
2021/07/08 00:18:11;;;;;;;8.50;5.93;;;;;;;16.87;78.42;101888.44;5073110;28;20070;-40
2021/07/08 00:20:39;;;;;;;8.48;6.80;;;;;;;16.68;78.42;101883.16;5073035;28;20372;-40
2021/07/08 00:23:05;;;;;;;11.00;6.75;;;;;;;16.78;77.97;101888.00;5072878;28;20082;-40
2021/07/08 00:25:31;;;;;;;8.02;6.22;;;;;;;16.74;78.15;101884.13;5073466;28;20032;-40
2021/07/08 00:27:57;;;;;;;11.13;5.93;;;;;;;16.73;78.66;101880.53;5073571;28;20024;-40
2021/07/08 00:30:23;;;;;;;7.30;6.30;;;;;;;16.66;78.79;101879.88;5072772;28;20036;-40
2021/07/08 00:32:50;;;;;;;6.18;5.20;;;;;;;16.62;78.91;101872.41;5073032;28;20024;-40
2021/07/08 00:35:15;;;;;;;6.82;5.63;;;;;;;16.63;78.46;101872.16;5073302;28;20024;-40
2021/07/08 00:37:41;;;;;;;7.75;5.57;;;;;;;16.66;78.27;101876.31;5072678;28;20016;-40
2021/07/08 00:40:08;;;;;;;;;;;;;;;16.81;77.00;101875.78;5075724;28;20093;-40
2021/07/08 00:42:33;;;;;;;9.13;5.68;;;;;;;16.61;78.46;101887.13;5076830;28;20377;-39
2021/07/08 00:44:58;;;;;;;;;;;;;;;16.80;76.29;101887.78;5075853;28;20056;-39
2021/07/08 00:47:24;;;;;;;6.57;5.83;;;;;;;16.54;78.43;101881.00;5076467;28;20260;-40
2021/07/08 00:49:50;;;;;;;;;;;;;;;16.68;76.64;101877.69;5075304;28;20473;-40
2021/07/08 00:52:15;;;;;;;7.07;6.38;;;;;;;16.36;78.88;101884.78;5076391;28;19908;-40
2021/07/08 00:54:40;;;;;;;;;;;;;;;16.46;77.31;101893.97;5076854;28;20364;-40
2021/07/08 00:57:06;;;;;;;7.70;6.47;;;;;;;16.26;79.45;101890.03;5076276;28;20302;-40
2021/07/08 00:59:31;;;;;;;8.27;7.30;;;;;;;16.28;79.90;101894.16;5076167;28;20669;-40
2021/07/08 01:01:58;;;;;;;10.95;8.55;;;;;;;16.28;80.08;101887.88;5076260;28;20130;-40
2021/07/08 01:04:24;;;;;;;9.88;7.72;;;;;;;16.29;79.79;101886.81;5076122;28;20025;-40
2021/07/08 01:06:50;;;;;;;;;;;;;;;16.47;77.77;101879.25;5076944;28;20342;-40
2021/07/08 01:09:15;;;;;;;8.38;7.53;;;;;;;16.24;79.56;101884.81;5076021;28;19912;-40
2021/07/08 01:11:44;;;;;;;8.63;7.80;;;;;;;16.25;79.70;101885.63;5076387;28;20501;-40
2021/07/08 01:14:10;;;;;;;8.27;7.45;;;;;;;16.19;80.09;101879.25;5075687;28;20024;-40
2021/07/08 01:16:35;;;;;;;9.82;8.63;;;;;;;16.18;80.40;101883.88;5076529;28;20074;-40
2021/07/08 01:19:02;;;;;;;;;;;;;;;16.37;77.85;101894.63;5076232;28;20035;-40
2021/07/08 01:21:33;;;;;;;10.75;8.15;;;;;;;16.19;80.45;101892.91;5076422;28;20263;-40
2021/07/08 01:24:02;;;;;;;9.27;7.60;;;;;;;16.20;80.33;101897.28;5075775;28;20036;-40
2021/07/08 01:26:28;;;;;;;9.70;8.70;;;;;;;16.16;80.83;101896.97;5075572;28;20072;-40
2021/07/08 01:28:54;;;;;;;12.23;8.15;;;;;;;16.18;80.97;101893.97;5075713;28;20107;-40
2021/07/08 01:31:22;;;;;;;9.85;8.07;;;;;;;16.20;81.03;101889.09;5076064;28;20021;-40
2021/07/08 01:33:49;;;;;;;11.00;8.88;;;;;;;16.25;81.46;101894.69;5076175;28;20032;-39
2021/07/08 01:36:14;;;;;;;11.15;8.30;;;;;;;16.25;81.28;101894.69;5076416;28;20399;-40
2021/07/08 01:38:40;;;;;;;11.73;9.15;;;;;;;16.19;80.62;101887.44;5075475;28;20021;-40
2021/07/08 01:41:06;;;;;;;;;;;;;;;16.38;79.22;101888.91;5076260;28;20078;-40
2021/07/08 01:43:40;;;;;;;11.63;9.48;;;;;;;16.31;80.16;101892.88;5075085;28;19908;-40
2021/07/08 01:46:06;;;;;;;10.00;8.73;;;;;;;16.40;80.42;101888.69;5075370;28;20020;-40
2021/07/08 01:48:33;;;;;;;10.93;9.13;;;;;;;16.47;79.96;101892.91;5075296;28;20411;-40
2021/07/08 01:51:03;;;;;;;13.50;9.27;;;;;;;16.52;79.87;101894.06;5074835;28;20048;-39
2021/07/08 01:53:29;;;;;;;10.57;8.55;;;;;;;16.43;80.25;101890.91;5075483;28;20111;-40
2021/07/08 01:55:57;;;;;;;10.98;9.88;;;;;;;16.52;80.25;101886.69;5075278;28;20430;-40
2021/07/08 01:58:22;;;;;;;11.48;10.23;;;;;;;16.54;80.07;101881.00;5075007;28;20056;-40
2021/07/08 02:00:48;;;;;;;10.82;9.30;;;;;;;16.47;80.36;101881.16;5075921;28;20055;-40
2021/07/08 02:03:13;;;;;;;;;;;;;;;16.57;78.85;101875.03;5075725;28;20345;-39
2021/07/08 02:05:38;;;;;;;12.30;9.88;;;;;;;16.48;80.31;101867.25;5075489;28;19958;-40
2021/07/08 02:08:04;;;;;;;12.80;9.67;;;;;;;16.44;81.02;101865.25;5075281;28;20027;-40
2021/07/08 02:10:29;;;;;;;11.43;10.10;;;;;;;16.43;80.80;101864.44;5075510;28;20251;-39
2021/07/08 02:12:55;;;;;;;12.68;10.55;;;;;;;16.32;81.09;101873.50;5074662;28;20376;-40
2021/07/08 02:15:20;;;;;;;;;;;;;;;16.53;79.23;101873.88;5075240;28;20027;-40
2021/07/08 02:17:46;;;;;;;11.57;10.10;;;;;;;16.33;81.28;101863.41;5074673;28;19911;-40
2021/07/08 02:20:13;;;;;;;11.40;10.20;;;;;;;16.35;81.09;101874.94;5074920;28;20023;-40
2021/07/08 02:22:39;;;;;;;13.57;9.85;;;;;;;16.26;81.58;101865.47;5074577;28;20020;-40
2021/07/08 02:25:05;;;;;;;11.30;10.20;;;;;;;16.25;81.75;101878.31;5075405;28;20129;-40
2021/07/08 02:27:31;;;;;;;11.35;9.85;;;;;;;16.27;81.41;101878.88;5074481;28;20037;-40
2021/07/08 02:29:56;;;;;;;11.90;10.63;;;;;;;16.23;81.77;101875.78;5074835;28;20073;-40
2021/07/08 02:32:23;;;;;;;12.07;10.77;;;;;;;16.17;81.76;101876.78;5074192;28;20460;-40
2021/07/08 02:34:48;;;;;;;11.60;10.18;;;;;;;16.19;82.04;101874.63;5075007;28;20253;-40
2021/07/08 02:37:15;;;;;;;14.77;10.65;;;;;;;16.25;82.09;101881.03;5074089;28;20082;-39
2021/07/08 02:39:41;;;;;;;13.18;11.35;;;;;;;16.25;82.01;101888.34;5074847;28;20029;-40
2021/07/08 02:42:06;;;;;;;14.32;10.32;;;;;;;16.23;81.87;101873.06;5074011;28;20036;-40
2021/07/08 02:44:33;;;;;;;11.63;10.30;;;;;;;16.17;82.31;101876.78;5074837;28;20028;-39
2021/07/08 02:46:59;;;;;;;14.50;10.30;;;;;;;16.17;82.04;101882.22;5074207;28;20413;-40
2021/07/08 02:49:25;;;;;;;13.38;10.25;;;;;;;16.17;81.92;101879.50;5074079;28;20123;-40
2021/07/08 02:51:50;;;;;;;15.38;10.63;;;;;;;16.20;81.42;101879.03;5073900;28;20139;-40
2021/07/08 02:54:16;;;;;;;13.38;11.07;;;;;;;16.26;81.55;101876.41;5073713;28;20024;-40
2021/07/08 02:56:41;;;;;;;13.05;10.18;;;;;;;16.30;81.37;101875.66;5074616;28;20031;-39
2021/07/08 02:59:06;;;;;;;;;;;;;;;16.44;80.23;101877.00;5074351;28;20048;-39
2021/07/08 03:01:32;;;;;;;11.97;9.27;;;;;;;16.35;81.43;101885.84;5074269;28;20268;-39
2021/07/08 03:03:57;;;;;;;10.53;9.23;;;;;;;16.32;81.22;101880.88;5073212;28;20761;-39
2021/07/08 03:06:22;;;;;;;14.10;10.43;;;;;;;16.37;80.98;101884.53;5074237;28;20255;-40
2021/07/08 03:08:47;;;;;;;13.13;10.23;;;;;;;16.28;81.66;101883.25;5073643;28;20711;-40
2021/07/08 03:11:13;;;;;;;;;;;;;;;16.45;80.05;101883.31;5074607;28;20092;-40
2021/07/08 03:13:38;;;;;;;10.63;9.50;;;;;;;16.34;81.23;101886.91;5073387;28;20221;-40
2021/07/08 03:16:05;;;;;;;12.93;9.57;;;;;;;16.28;81.47;101887.88;5074094;28;20112;-39
2021/07/08 03:18:31;;;;;;;11.70;10.18;;;;;;;16.29;80.58;101887.63;5073726;28;20028;-40
2021/07/08 03:20:56;;;;;;;10.70;9.45;;;;;;;16.28;81.52;101894.16;5074591;28;20028;-39
2021/07/08 03:23:21;;;;;;;13.20;9.33;;;;;;;16.33;81.13;101898.91;5073180;28;20033;-40
2021/07/08 03:25:47;;;;;;;11.30;9.57;;;;;;;16.27;81.89;101900.72;5073705;28;20345;-40
2021/07/08 03:28:12;;;;;;;14.17;9.83;;;;;;;16.18;82.25;101889.34;5073400;28;20353;-39
2021/07/08 03:30:38;;;;;;;12.38;9.40;;;;;;;16.22;82.24;101901.44;5073690;28;20290;-40
2021/07/08 03:33:03;;;;;;;12.90;10.00;;;;;;;16.19;82.82;101896.44;5073694;28;20360;-40
2021/07/08 03:35:30;;;;;;;13.60;11.02;;;;;;;16.17;82.88;101895.06;5074143;28;20024;-40
2021/07/08 03:37:56;;;;;;;;;;;;;;;16.37;80.56;101897.34;5073973;28;20025;-40
2021/07/08 03:40:21;;;;;;;13.20;9.02;;;;;;;16.26;81.98;101911.88;5074277;28;19908;-40
2021/07/08 03:42:49;;;;;;;;;;;;;;;16.41;80.57;101914.91;5073910;28;20399;-40
2021/07/08 03:45:16;;;;;;;13.98;10.13;;;;;;;16.31;81.71;101910.06;5073477;28;19909;-40
2021/07/08 03:47:42;;;;;;;11.70;9.52;;;;;;;16.42;81.86;101916.56;5073503;28;20024;-40
2021/07/08 03:50:10;;;;;;;11.75;9.38;;;;;;;16.36;81.95;101910.16;5074276;28;20016;-40
2021/07/08 03:52:39;;;;;;;13.00;9.15;;;;;;;16.36;81.89;101907.44;5073861;28;20028;-40
2021/07/08 03:55:08;;;;;;;10.45;9.45;;;;;;;16.39;82.12;101906.09;5073678;28;20029;-40
2021/07/08 03:57:34;;;;;;;10.60;8.85;;;;;;;16.33;82.37;101902.44;5073280;28;20081;-40
2021/07/08 03:59:59;;;;;;;12.02;9.27;;;;;;;16.28;82.78;101907.00;5073882;28;20103;-40
2021/07/08 04:02:24;;;;;;;;;;;;;;;16.43;81.45;101908.09;5074064;28;20016;-40
2021/07/08 04:04:50;;;;;;;10.48;9.45;;;;;;;16.20;82.62;101909.06;5073644;28;19999;-39
2021/07/08 04:07:15;;;;;;;13.20;9.82;;;;;;;16.18;83.20;101900.25;5073575;28;20020;-39
2021/07/08 04:09:40;;;;;;;12.88;9.27;;;;;;;16.20;83.12;101898.13;5073188;28;20040;-40
2021/07/08 04:12:06;;;;;;;11.77;9.50;;;;;;;16.27;83.29;101891.69;5072956;28;20016;-40
2021/07/08 04:14:32;;;;;;;;;;;;;;;16.42;81.59;101905.63;5075218;28;20095;-40
2021/07/08 04:16:57;;;;;;;14.13;8.75;;;;;;;16.33;82.44;101899.72;5077177;28;19904;-40
2021/07/08 04:19:22;;;;;;;12.48;9.88;;;;;;;16.32;82.09;101911.72;5077772;28;20024;-40
2021/07/08 04:21:47;;;;;;;;;;;;;;;16.46;81.34;101912.25;5077763;28;20031;-40
2021/07/08 04:24:13;;;;;;;12.23;9.83;;;;;;;16.32;82.08;101911.72;5076803;28;19914;-40
2021/07/08 04:26:38;;;;;;;12.60;10.40;;;;;;;16.36;81.72;101909.34;5076884;28;20365;-40
2021/07/08 04:29:04;;;;;;;12.10;10.18;;;;;;;16.34;82.53;101906.00;5076573;28;20751;-39
2021/07/08 04:31:29;;;;;;;13.07;11.05;;;;;;;16.32;82.78;101921.81;5077102;28;20082;-39
2021/07/08 04:33:55;;;;;;;;;;;;;;;16.48;81.09;101921.84;5077172;28;20099;-40
2021/07/08 04:36:20;;;;;;;12.70;10.02;;;;;;;16.37;82.80;101924.63;5077340;28;20320;-40
2021/07/08 04:38:48;;;;;;;13.52;10.75;;;;;;;16.30;82.72;101918.47;5077125;28;20024;-39
2021/07/08 04:41:14;;;;;;;12.85;10.07;;;;;;;16.43;82.70;101923.66;5076711;28;20093;-40
2021/07/08 04:43:40;;;;;;;13.93;10.95;;;;;;;16.39;82.71;101933.41;5076551;28;20032;-39
2021/07/08 04:46:05;;;;;;;;;;;;;;;16.55;81.46;101932.66;5077006;28;20024;-40
2021/07/08 04:48:30;;;;;;;15.10;10.52;;;;;;;16.45;82.54;101932.44;5076744;28;19966;-40
2021/07/08 04:51:00;;;;;;;11.55;10.35;;;;;;;16.45;82.64;101944.19;5077073;28;20490;-40
2021/07/08 04:53:25;;;;;;;14.27;10.13;;;;;;;16.55;81.65;101938.09;5076355;28;20092;-40
2021/07/08 04:55:50;;;;;;;14.25;9.95;;;;;;;16.55;81.93;101940.84;5076960;28;20107;-39
2021/07/08 04:58:16;;;;;;;12.87;10.17;;;;;;;16.52;82.20;101944.03;5076422;28;20056;-40
2021/07/08 05:00:41;;;;;;;15.63;10.93;;;;;;;16.51;82.13;101942.38;5076265;28;20303;-40
2021/07/08 05:03:08;;;;;;;11.60;9.30;;;;;;;16.53;81.98;101942.97;5076227;28;20025;-39
2021/07/08 05:05:35;;;;;;;11.13;9.82;;;;;;;16.54;82.53;101952.81;5076525;28;20341;-40
2021/07/08 05:08:00;;;;;;;14.30;10.55;;;;;;;16.51;82.56;101939.66;5076175;28;20068;-40
2021/07/08 05:10:25;;;;;;;12.80;10.80;;;;;;;16.66;82.90;101947.31;5076750;28;20052;-40
2021/07/08 05:12:51;;;;;;;15.60;10.18;;;;;;;16.63;81.58;101953.25;5076042;28;20086;-40
2021/07/08 05:15:16;;;;;;;;;;;;;;;16.76;80.70;101954.88;5077090;28;20028;-40
2021/07/08 05:17:46;;;;;;;15.48;10.93;;;;;;;16.63;81.85;101959.53;5075689;28;19911;-40
2021/07/08 05:20:13;;;;;;;14.55;10.52;;;;;;;16.61;82.10;101972.63;5075844;28;20029;-40
2021/07/08 05:22:39;;;;;;;12.60;10.60;;;;;;;16.66;82.35;101971.88;5076073;28;20500;-40
2021/07/08 05:25:05;;;;;;;;;;;;;;;16.87;80.84;101971.22;5077082;28;20044;-39
2021/07/08 05:27:31;;;;;;;12.90;9.82;;;;;;;17.02;81.65;101970.66;5075358;28;19915;-40
2021/07/08 05:29:56;;;;;;;13.93;10.35;;;;;;;17.22;80.49;101971.00;5075761;28;20056;-39
2021/07/08 05:32:22;;;;;;;;;;;;;;;17.46;79.71;101965.34;5075835;28;20024;-40
2021/07/08 05:34:47;;;;;;;14.70;10.98;;;;;;;17.50;78.95;101955.59;5075863;28;19909;-40
2021/07/08 05:37:12;;;;;;;13.13;11.15;;;;;;;17.65;78.53;101955.81;5075580;28;20050;-40
2021/07/08 05:39:38;;;;;;;;;;;;;;;17.80;78.66;101951.66;5076793;28;20028;-40
2021/07/08 05:42:03;;;;;;;15.40;11.20;;;;;;;17.78;77.89;101962.03;5075874;28;19912;-40
2021/07/08 05:44:30;;;;;;;15.52;11.15;;;;;;;17.79;78.35;101958.22;5075478;28;20392;-40
2021/07/08 05:46:55;;;;;;;15.30;11.00;;;;;;;17.90;78.09;101962.75;5076241;28;20112;-40
2021/07/08 05:49:20;;;;;;;12.65;11.35;;;;;;;17.97;77.71;101966.16;5075128;28;20496;-40
2021/07/08 05:51:46;;;;;;;;;;;;;;;18.20;77.90;101956.84;5075727;28;20115;-40
2021/07/08 05:54:11;;;;;;;16.00;11.00;;;;;;;18.17;76.86;101952.72;5075196;28;19920;-40
2021/07/08 05:56:36;;;;;;;15.30;12.35;;;;;;;18.19;77.13;101953.28;5075589;28;20255;-40
2021/07/08 05:59:02;;;;;;;13.57;10.90;;;;;;;18.17;76.42;101949.16;5074778;28;20103;-40
2021/07/08 06:01:27;;;;;;;13.27;10.77;;;;;;;18.33;76.72;101963.84;5075756;28;20028;-40
2021/07/08 06:03:53;;;;;;;;;;;;;;;18.46;76.39;101966.19;5075770;28;20055;-40
2021/07/08 06:06:19;;;;;;;13.03;10.97;;;;;;;18.38;76.19;101963.91;5075578;28;19911;-40
2021/07/08 06:08:46;;;;;;;;;;;;;;;18.52;76.47;101962.44;5075076;28;20634;-40
2021/07/08 06:11:12;;;;;;;13.30;10.93;;;;;;;18.42;76.41;101962.31;5074907;28;19904;-40
2021/07/08 06:13:38;;;;;;;14.50;11.20;;;;;;;18.47;76.48;101976.06;5075595;28;20028;-40
2021/07/08 06:16:03;;;;;;;;;;;;;;;18.68;76.45;101969.75;5075669;28;20126;-40
2021/07/08 06:18:29;;;;;;;15.77;11.98;;;;;;;18.55;75.36;101972.06;5074694;28;19965;-40
2021/07/08 06:20:54;;;;;;;;;;;;;;;18.69;75.68;101976.91;5075406;28;20419;-40
2021/07/08 06:23:21;;;;;;;14.07;10.43;;;;;;;18.57;74.09;101978.91;5074607;28;20414;-40
2021/07/08 06:25:47;;;;;;;11.35;9.38;;;;;;;18.58;73.37;101977.00;5075761;28;20041;-40
2021/07/08 06:28:12;;;;;;;;;;;;;;;18.77;73.75;101987.38;5074706;28;20017;-40
2021/07/08 06:30:38;;;;;;;12.85;9.32;;;;;;;18.69;73.01;101995.22;5074500;28;20237;-40
2021/07/08 06:33:03;;;;;;;;;;;;;;;18.87;73.83;101996.81;5074880;28;20024;-40
2021/07/08 06:35:28;;;;;;;15.13;9.35;;;;;;;18.86;72.19;101989.66;5075052;28;19912;-40
2021/07/08 06:37:53;;;;;;;;;;;;;;;19.02;73.38;101994.19;5075278;28;20025;-40
2021/07/08 06:40:19;;;;;;;11.77;8.70;;;;;;;18.94;72.15;101994.69;5074315;28;20268;-40
2021/07/08 06:42:44;;;;;;;;;;;;;;;19.11;71.88;101998.13;5074641;28;20262;-40
2021/07/08 06:45:13;;;;;;;11.82;8.68;;;;;;;19.03;71.27;101996.72;5074858;28;19995;-40
2021/07/08 06:47:43;;;;;;;10.73;8.10;;;;;;;19.03;71.48;102004.94;5074123;28;20017;-40
2021/07/08 06:50:10;;;;;;;12.68;8.50;;;;;;;18.96;70.83;102001.56;5074696;28;20059;-40
2021/07/08 06:52:35;;;;;;;12.18;8.85;;;;;;;19.03;71.35;102012.28;5074149;28;20012;-40
2021/07/08 06:55:00;;;;;;;;;;;;;;;19.17;71.83;102004.47;5074785;28;20072;-40
2021/07/08 06:57:26;;;;;;;12.13;7.33;;;;;;;19.15;69.27;102017.63;5073999;28;19987;-40
2021/07/08 06:59:51;;;;;;;;;;;;;;;19.26;69.54;102011.97;5074669;28;20603;-40
2021/07/08 07:02:16;;;;;;;10.55;6.28;;;;;;;19.23;68.30;102012.50;5074564;28;20256;-40
2021/07/08 07:04:41;;;;;;;;;;;;;;;19.41;69.06;102021.41;5074121;28;20024;-40
2021/07/08 07:07:07;;;;;;;12.70;6.13;;;;;;;19.35;67.59;102019.72;5074300;28;19915;-40
2021/07/08 07:09:32;;;;;;;;;;;;;;;19.51;69.63;102022.31;5074581;28;20270;-40
2021/07/08 07:11:57;;;;;;;8.40;4.83;;;;;;;19.55;68.33;102017.16;5073881;28;20314;-40
2021/07/08 07:14:22;;;;;;;;;;;;;;;19.66;68.16;102010.66;5073992;28;20074;-40
2021/07/08 07:16:48;;;;;;;6.90;4.88;;;;;;;19.56;66.93;102011.38;5074060;28;20336;-40
2021/07/08 07:19:13;;;;;;;;;;;;;;;19.70;68.64;102016.47;5074131;28;20452;-40
2021/07/08 07:21:38;;;;;;;9.30;4.67;;;;;;;19.70;66.92;102016.47;5074257;28;19915;-40
2021/07/08 07:24:04;;;;;;;;;;;;;;;19.84;68.13;102012.16;5073844;28;20298;-40
2021/07/08 07:26:29;;;;;;;8.60;4.28;;;;;;;19.83;64.30;102017.94;5073962;28;19916;-40
2021/07/08 07:28:55;;;;;;;7.30;4.20;;;;;;;19.88;64.40;102020.72;5073620;28;20078;-40
2021/07/08 07:31:20;;;;;;;;;;;;;;;19.99;65.76;102020.50;5074388;28;20353;-40
2021/07/08 07:33:46;;;;;;;7.65;4.85;;;;;;;19.89;64.23;102011.38;5073526;28;20316;-40
2021/07/08 07:36:12;;;;;;;7.18;4.68;;;;;;;19.97;65.05;102027.34;5073595;28;20021;-40
2021/07/08 07:38:38;;;;;;;;;;;;;;;20.07;65.34;102024.66;5073886;28;20077;-40
2021/07/08 07:41:04;;;;;;;10.52;4.18;;;;;;;20.01;63.95;102021.06;5073842;28;19995;-40
2021/07/08 07:43:29;;;;;;;;;;;;;;;20.10;65.50;102026.88;5074456;28;20125;-40
2021/07/08 07:45:54;;;;;;;5.90;4.38;;;;;;;20.03;63.98;102020.78;5074073;28;19908;-40
2021/07/08 07:48:20;;;;;;;12.45;4.40;;;;;;;20.08;63.99;102023.56;5073476;28;20043;-40
2021/07/08 07:50:45;;;;;;;7.32;4.22;;;;;;;20.24;64.83;102033.53;5077327;28;20475;-40
2021/07/08 07:53:11;;;;;;;6.50;4.28;;;;;;;20.36;63.61;102032.50;5077818;28;20166;-40
2021/07/08 07:55:37;;;;;;;;;;;;;;;20.50;64.70;102036.44;5078821;28;20064;-40
2021/07/08 07:58:05;;;;;;;7.45;3.95;;;;;;;20.44;62.00;102041.03;5077508;28;20355;-40
2021/07/08 08:00:32;;;;;;;4.80;3.10;;;;;;;20.40;60.94;102034.44;5077349;28;20028;-40
2021/07/08 08:02:57;;;;;;;4.60;2.90;;;;;;;20.38;60.96;102039.38;5077340;28;20032;-40
2021/07/08 08:10:43;;;;;;;7.13;2.80;;;;;;;20.65;58.58;102021.94;5077302;28;20035;-40
2021/07/08 08:13:09;;;;;;;6.90;2.70;;;;;;;20.75;59.21;102019.22;5076851;28;20029;-40
2021/07/08 08:15:35;;;;;;;4.32;2.50;;;;;;;20.89;59.39;102016.78;5077174;28;20029;-40
2021/07/08 08:18:03;;;;;;;;;;;;;;;21.04;61.59;102016.78;5077483;28;20024;-40
2021/07/08 08:20:30;;;;;;;5.88;3.38;;;;;;;21.06;60.87;102011.84;5076951;28;19912;-40
2021/07/08 08:22:56;;;;;;;7.85;2.92;;;;;;;21.11;59.08;102003.59;5076909;28;20032;-40
2021/07/08 08:25:22;;;;;;;4.30;2.63;;;;;;;21.16;57.33;102000.84;5078027;28;20087;-40
2021/07/08 08:27:47;;;;;;;;;;;;;;;21.31;59.31;102009.13;5077299;28;20021;-40
2021/07/08 08:30:14;;;;;;;4.55;2.47;;;;;;;21.24;58.17;102011.31;5076908;28;19914;-40
2021/07/08 08:32:43;;;;;;;5.93;2.58;;;;;;;21.14;56.71;102013.22;5076751;28;20024;-40
2021/07/08 08:35:09;;;;;;;3.70;2.45;;;;;;;21.12;56.79;102009.91;5077073;28;20071;-40
2021/07/08 08:37:35;;;;;;;4.22;2.30;;;;;;;21.13;57.57;102011.56;5076418;28;20039;-40
2021/07/08 08:40:01;;;;;;;;;;;;;;;21.29;59.63;102024.25;5077356;28;20024;-40
2021/07/08 08:42:27;;;;;;;5.90;2.70;;;;;;;21.21;58.14;102020.09;5076702;28;19908;-40
2021/07/08 08:44:55;;;;;;;4.25;2.88;;;;;;;21.24;57.25;102018.75;5077421;28;20024;-40
2021/07/08 08:47:21;;;;;;;6.13;2.90;;;;;;;21.14;55.84;102013.22;5076274;28;20040;-40
2021/07/08 08:49:47;;;;;;;;;;;;;;;21.37;57.65;102025.63;5076940;28;20464;-40
2021/07/08 08:52:15;;;;;;;6.60;2.40;;;;;;;21.47;57.84;102025.63;5076404;28;20336;-40
2021/07/08 08:54:41;;;;;;;3.38;2.40;;;;;;;21.55;58.88;102025.09;5076968;28;20365;-40
2021/07/08 08:57:07;;;;;;;4.60;2.47;;;;;;;21.70;58.13;102025.06;5076665;28;20020;-40
2021/07/08 08:59:33;;;;;;;4.53;3.00;;;;;;;21.67;55.16;102020.13;5076199;28;20023;-40
2021/07/08 09:02:13;;;;;;;4.97;2.90;;;;;;;21.74;57.56;102026.16;5075468;28;20028;-40
2021/07/08 09:04:39;;;;;;;5.72;2.40;;;;;;;21.62;56.04;102020.16;5076462;28;20028;-40
2021/07/08 09:07:27;;;;;;;6.18;2.85;;;;;;;21.65;57.30;102024.25;5076795;28;20333;-40
2021/07/08 09:10:01;;;;;;;3.85;2.58;;;;;;;21.63;55.69;102020.97;5075742;28;20334;-40
2021/07/08 09:12:27;;;;;;;6.43;2.80;;;;;;;21.69;57.32;102031.69;5076135;28;20025;-40
2021/07/08 09:15:14;;;;;;;5.90;2.60;;;;;;;21.77;57.94;102022.06;5076047;28;20419;-40
2021/07/08 09:17:39;;;;;;;;;;;;;;;21.88;57.52;102022.84;5076198;28;20028;-40
2021/07/08 09:20:08;;;;;;;5.90;2.67;;;;;;;21.82;54.45;102028.38;5075639;28;20045;-40
2021/07/08 09:22:33;;;;;;;6.40;3.05;;;;;;;22.04;55.64;102029.97;5075695;28;20036;-40
2021/07/08 09:24:59;;;;;;;8.43;2.97;;;;;;;22.04;55.81;102032.72;5076357;28;20044;-40
2021/07/08 09:27:27;;;;;;;5.60;3.42;;;;;;;22.11;55.42;102044.31;5075484;28;20460;-40
2021/07/08 09:29:54;;;;;;;3.47;2.40;;;;;;;22.09;54.48;102046.47;5076104;28;20056;-40
2021/07/08 09:32:23;;;;;;;3.67;2.40;;;;;;;22.13;55.52;102053.13;5076036;28;20353;-40
2021/07/08 09:34:57;;;;;;;4.38;2.33;;;;;;;22.21;54.56;102069.06;5075472;28;20030;-40
2021/07/08 09:37:27;;;;;;;4.93;2.72;;;;;;;22.10;54.43;102059.13;5076153;28;20028;-40
2021/07/08 09:39:57;;;;;;;4.22;2.05;;;;;;;22.17;53.63;102056.13;5075725;28;20027;-40
2021/07/08 09:42:31;;;;;;;5.18;2.20;;;;;;;22.17;52.57;102062.47;5075646;28;20032;-40
2021/07/08 09:45:07;;;;;;;3.08;1.70;;;;;;;22.01;52.51;102066.31;5075739;28;20034;-40
2021/07/08 09:47:33;;;;;;;;;;;;;;;22.10;53.19;102061.88;5076142;28;20024;-40
2021/07/08 09:49:59;;;;;;;2.33;1.50;;;;;;;21.76;52.96;102070.75;5075377;28;19904;-40
2021/07/08 09:52:24;;;;;;;5.70;1.90;;;;;;;21.67;54.08;102069.69;5076172;28;20115;-40
2021/07/08 09:57:46;;;;;;;4.30;1.88;;;;;;;21.50;55.23;102088.38;5075554;28;20030;-40
2021/07/08 10:00:24;;;;;;;3.40;1.90;;;;;;;21.38;55.55;102090.59;5075668;28;20467;-40
2021/07/08 10:02:51;;;;;;;3.55;2.58;;;;;;;21.30;54.48;102083.66;5075136;28;20032;-40
2021/07/08 10:05:17;;;;;;;3.13;2.00;;;;;;;21.35;56.43;102075.44;5075109;28;20445;-40
2021/07/08 10:07:44;;;;;;;5.63;2.00;;;;;;;21.35;56.15;102080.94;5074746;28;20028;-40
2021/07/08 10:10:12;;;;;;;2.83;1.77;;;;;;;21.49;55.69;102072.97;5075841;28;20120;-40
2021/07/08 10:12:38;;;;;;;3.30;1.67;;;;;;;21.82;56.44;102068.84;5075166;28;20028;-40
2021/07/08 10:15:06;;;;;;;2.95;1.92;;;;;;;22.00;54.49;102065.50;5074938;28;20024;-40
2021/07/08 10:17:35;;;;;;;4.40;1.80;;;;;;;22.10;54.04;102059.13;5074719;28;20016;-40
2021/07/08 10:20:05;;;;;;;3.75;1.55;;;;;;;22.30;53.81;102059.13;5074748;28;20024;-40
2021/07/08 10:22:31;;;;;;;2.63;1.80;;;;;;;22.61;52.67;102067.28;5075278;28;20107;-40
2021/07/08 10:24:56;;;;;;;4.63;1.83;;;;;;;22.78;52.93;102053.94;5075643;28;20114;-40
2021/07/08 10:27:23;;;;;;;3.63;1.88;;;;;;;22.69;50.36;102060.34;5074352;28;20048;-40
2021/07/08 10:29:49;;;;;;;2.90;1.60;;;;;;;22.81;52.61;102052.56;5074612;28;20024;-40
2021/07/08 10:32:16;;;;;;;5.75;2.05;;;;;;;22.97;52.17;102050.56;5074593;28;20032;-40
2021/07/08 10:34:51;;;;;;;3.72;2.05;;;;;;;22.99;51.97;102051.13;5074984;28;20028;-40
2021/07/08 10:37:26;;;;;;;6.50;2.40;;;;;;;23.15;52.35;102058.19;5074704;28;20074;-40
2021/07/08 10:39:56;;;;;;;4.63;1.90;;;;;;;23.04;50.93;102049.16;5074604;28;20016;-40
2021/07/08 10:42:39;;;;;;;2.58;1.80;;;;;;;23.22;52.19;102049.56;5074704;28;20428;-40
2021/07/08 10:45:05;;;;;;;5.78;1.63;;;;;;;23.32;51.63;102042.03;5073834;28;20333;-40
2021/07/08 10:47:38;;;;;;;5.13;1.92;;;;;;;23.30;50.39;102043.44;5074545;28;20027;-40
2021/07/08 10:50:08;;;;;;;4.25;1.95;;;;;;;23.47;50.80;102043.00;5074185;28;20032;-40
2021/07/08 10:52:40;;;;;;;4.90;2.10;;;;;;;23.52;49.43;102045.72;5073405;28;20373;-40
2021/07/08 10:55:06;;;;;;;3.03;1.67;;;;;;;23.38;48.67;102040.06;5073846;28;20025;-40
2021/07/08 10:57:37;;;;;;;3.88;1.77;;;;;;;23.32;51.29;102038.44;5073972;28;20031;-40
2021/07/08 11:00:07;;;;;;;3.65;2.00;;;;;;;23.33;50.16;102038.19;5074560;28;20463;-40
2021/07/08 11:02:51;;;;;;;4.15;1.80;;;;;;;23.34;49.37;102039.81;5073907;28;20443;-40
2021/07/08 11:05:54;;;;;;;2.10;1.50;;;;;;;23.19;50.40;102036.34;5074283;28;20386;-40
2021/07/08 11:08:45;;;;;;;2.33;1.50;;;;;;;23.25;51.36;102036.03;5073832;28;20020;-40
2021/07/08 11:11:11;;;;;;;4.05;1.85;;;;;;;23.19;50.06;102026.16;5074047;28;20019;-40
2021/07/08 11:13:37;;;;;;;4.70;2.00;;;;;;;23.23;49.29;102024.47;5073831;28;20024;-40
2021/07/08 11:16:03;;;;;;;3.42;1.80;;;;;;;23.33;48.59;102029.91;5073573;28;20460;-40
2021/07/08 11:18:32;;;;;;;5.55;2.25;;;;;;;23.51;50.42;102031.09;5073794;28;20100;-40
2021/07/08 11:20:58;;;;;;;3.55;1.90;;;;;;;23.58;49.68;102028.03;5073971;28;20074;-40
2021/07/08 11:23:39;;;;;;;4.65;1.90;;;;;;;23.46;49.46;102024.81;5073102;28;20107;-40
2021/07/08 11:26:07;;;;;;;2.80;1.70;;;;;;;23.46;48.89;102022.06;5074947;28;20048;-40
2021/07/08 11:28:33;;;;;;;3.92;1.30;;;;;;;23.79;49.49;102035.03;5073667;28;20350;-40
2021/07/08 11:31:06;;;;;;;2.47;1.48;;;;;;;23.92;47.93;102028.00;5073722;28;20032;-40
2021/07/08 11:33:36;;;;;;;2.53;1.92;;;;;;;24.11;46.39;102020.59;5072154;28;20060;-40
2021/07/08 11:36:11;;;;;;;4.65;1.90;;;;;;;24.20;47.53;102022.69;5073907;28;20582;-40
2021/07/08 11:38:41;;;;;;;5.38;1.85;;;;;;;24.36;47.76;102022.28;5073577;28;20024;-40